createdAt,value
2018-07-26T00:01:53.860Z,62.80
2018-07-26T00:04:23.627Z,62.62
2018-07-26T00:06:53.443Z,62.94
2018-07-26T00:09:23.121Z,63.14
2018-07-26T00:11:52.892Z,62.80
2018-07-26T00:14:22.628Z,63.24
2018-07-26T00:16:52.399Z,63.88
2018-07-26T00:19:22.088Z,65.64
2018-07-26T00:21:51.848Z,63.83
2018-07-26T00:24:21.428Z,66.45
2018-07-26T00:26:53.326Z,66.43
2018-07-26T00:29:23.063Z,64.82
2018-07-26T00:31:52.816Z,63.89
2018-07-26T00:34:24.112Z,64.10
2018-07-26T00:36:53.877Z,65.43
2018-07-26T00:39:23.503Z,64.44
2018-07-26T00:41:53.253Z,63.30
2018-07-26T00:44:23.170Z,63.30
2018-07-26T00:46:53.248Z,63.00
2018-07-26T00:49:22.893Z,63.07
2018-07-26T00:51:52.632Z,62.68
2018-07-26T00:54:22.307Z,62.99
2018-07-26T00:56:52.216Z,62.44
2018-07-26T00:59:21.861Z,62.65
2018-07-26T01:01:51.609Z,62.30
2018-07-26T01:04:21.296Z,62.82
2018-07-26T01:06:51.001Z,64.37
2018-07-26T01:09:20.727Z,65.66
2018-07-26T01:11:50.863Z,64.14
2018-07-26T01:14:20.952Z,63.35
2018-07-26T01:16:51.039Z,63.31
2018-07-26T01:19:20.797Z,63.53
2018-07-26T01:21:54.047Z,63.46
2018-07-26T01:24:24.513Z,63.35
2018-07-26T01:26:54.273Z,63.19
2018-07-26T01:29:24.150Z,62.93
2018-07-26T01:31:54.759Z,63.00
2018-07-26T01:34:25.923Z,62.67
2018-07-26T01:52:08.630Z,62.25
2018-07-26T01:54:38.495Z,62.42
2018-07-26T01:57:08.259Z,62.23
2018-07-26T01:59:38.044Z,62.49
2018-07-26T02:02:08.472Z,62.38
2018-07-26T02:04:38.314Z,64.27
2018-07-26T02:07:08.032Z,62.78
2018-07-26T02:09:37.776Z,62.59
2018-07-26T02:12:07.726Z,62.63
2018-07-26T02:14:37.639Z,61.99
2018-07-26T02:17:07.565Z,63.71
2018-07-26T02:19:37.336Z,64.08
2018-07-26T02:22:07.185Z,63.72
2018-07-26T02:24:37.080Z,64.00
2018-07-26T02:27:07.187Z,63.96
2018-07-26T02:29:37.035Z,64.08
2018-07-26T02:32:06.762Z,64.17
2018-07-26T02:34:36.514Z,65.01
2018-07-26T02:37:06.451Z,66.64
2018-07-26T02:39:36.247Z,67.93
2018-07-26T02:42:06.006Z,69.71
2018-07-26T02:44:35.827Z,70.66
2018-07-26T02:47:05.761Z,72.45
2018-07-26T02:49:35.472Z,71.84
2018-07-26T02:52:05.305Z,70.14
2018-07-26T02:54:35.479Z,68.27
2018-07-26T02:57:05.313Z,66.47
2018-07-26T02:59:35.129Z,65.75
2018-07-26T03:02:05.075Z,65.56
2018-07-26T03:04:34.859Z,64.88
2018-07-26T03:07:04.624Z,64.66
2018-07-26T03:09:34.422Z,64.04
2018-07-26T03:12:04.039Z,63.87
2018-07-26T03:14:37.767Z,63.75
2018-07-26T03:17:07.646Z,65.88
2018-07-26T03:19:37.422Z,65.83
2018-07-26T03:22:07.622Z,65.56
2018-07-26T03:24:37.500Z,64.71
2018-07-26T03:27:07.756Z,64.33
2018-07-26T03:29:37.555Z,65.27
2018-07-26T03:32:07.722Z,65.01
2018-07-26T03:34:37.606Z,64.12
2018-07-26T03:37:07.474Z,65.31
2018-07-26T03:39:37.282Z,65.51
2018-07-26T03:42:07.114Z,64.93
2018-07-26T03:44:36.880Z,64.56
2018-07-26T03:47:06.626Z,63.70
2018-07-26T03:49:36.297Z,64.41
2018-07-26T03:52:06.515Z,63.56
2018-07-26T03:54:36.288Z,64.03
2018-07-26T03:57:06.543Z,63.94
2018-07-26T03:59:36.402Z,63.59
2018-07-26T04:02:06.223Z,64.00
2018-07-26T04:04:35.956Z,63.99
2018-07-26T04:07:05.754Z,63.70
2018-07-26T04:09:35.485Z,63.45
2018-07-26T04:12:05.271Z,64.04
2018-07-26T04:14:35.067Z,64.35
2018-07-26T04:17:04.837Z,64.37
2018-07-26T04:19:34.653Z,64.48
2018-07-26T04:22:04.436Z,64.12
2018-07-26T04:24:34.138Z,64.18
2018-07-26T04:27:03.914Z,62.95
2018-07-26T04:29:33.739Z,61.84
2018-07-26T04:32:03.478Z,64.16
2018-07-26T04:34:33.307Z,65.86
2018-07-26T04:37:03.066Z,65.63
2018-07-26T04:39:32.624Z,65.32
2018-07-26T04:42:02.554Z,64.14
2018-07-26T04:44:32.302Z,65.58
2018-07-26T04:47:02.147Z,66.97
2018-07-26T04:49:31.942Z,68.41
2018-07-26T04:52:01.685Z,69.59
2018-07-26T04:54:31.402Z,69.70
2018-07-26T04:57:01.217Z,68.91
2018-07-26T04:59:31.446Z,70.01
2018-07-26T05:02:01.221Z,70.62
2018-07-26T05:04:31.089Z,66.76
2018-07-26T05:07:00.806Z,65.15
2018-07-26T05:09:30.555Z,65.73
2018-07-26T05:12:00.306Z,63.27
2018-07-26T05:14:30.100Z,64.25
2018-07-26T05:16:59.922Z,63.47
2018-07-26T05:19:29.819Z,65.19
2018-07-26T05:21:59.556Z,64.23
2018-07-26T05:24:33.554Z,62.96
2018-07-26T05:27:03.261Z,64.50
2018-07-26T05:29:33.010Z,65.86
2018-07-26T05:32:03.964Z,64.15
2018-07-26T05:34:33.758Z,63.75
2018-07-26T05:37:03.542Z,64.86
2018-07-26T05:39:33.344Z,65.44
2018-07-26T05:42:03.590Z,66.21
2018-07-26T05:44:33.535Z,65.76
2018-07-26T05:47:03.305Z,63.24
2018-07-26T05:49:33.141Z,62.73
2018-07-26T05:52:03.039Z,62.58
2018-07-26T05:54:32.887Z,61.17
2018-07-26T05:57:02.718Z,60.71
2018-07-26T05:59:32.703Z,61.92
2018-07-26T06:02:02.761Z,62.99
2018-07-26T06:04:32.582Z,65.37
2018-07-26T06:07:02.324Z,62.51
2018-07-26T06:09:32.781Z,61.69
2018-07-26T06:12:02.605Z,62.05
2018-07-26T06:14:33.277Z,60.27
2018-07-26T06:17:03.190Z,59.09
2018-07-26T06:19:32.992Z,57.78
2018-07-26T06:22:03.120Z,57.50
2018-07-26T06:24:33.805Z,58.30
2018-07-26T06:27:04.834Z,58.00
2018-07-26T06:29:35.497Z,55.53
2018-07-26T06:32:06.905Z,54.05
2018-07-26T06:34:37.554Z,55.42
2018-07-26T06:37:08.985Z,53.28
2018-07-26T06:39:39.666Z,52.14
2018-07-26T06:42:11.447Z,50.84
2018-07-26T06:48:01.994Z,51.46
2018-07-26T06:50:31.594Z,50.82
2018-07-26T06:53:01.537Z,50.86
2018-07-26T06:55:31.203Z,51.51
2018-07-26T06:58:00.798Z,52.97
2018-07-26T07:00:30.443Z,52.09
2018-07-26T07:02:59.935Z,51.92
2018-07-26T07:05:29.622Z,53.48
2018-07-26T07:07:59.242Z,54.88
2018-07-26T07:10:28.932Z,52.72
2018-07-26T07:12:58.618Z,52.57
2018-07-26T07:15:28.262Z,54.11
2018-07-26T07:17:57.917Z,53.19
2018-07-26T07:20:27.546Z,49.98
2018-07-26T07:22:57.322Z,48.75
2018-07-26T07:25:26.904Z,48.95
2018-07-26T07:27:56.457Z,47.66
2018-07-26T07:30:26.074Z,46.38
2018-07-26T07:32:55.753Z,47.33
2018-07-26T07:35:25.363Z,46.32
2018-07-26T07:37:54.952Z,45.37
2018-07-26T07:40:24.553Z,41.82
2018-07-26T07:42:54.089Z,41.47
2018-07-26T07:45:23.658Z,40.99
2018-07-26T07:47:53.113Z,41.07
2018-07-26T07:50:23.150Z,42.74
2018-07-26T07:52:52.894Z,40.04
2018-07-26T07:55:22.453Z,39.09
2018-07-26T07:57:52.044Z,39.44
2018-07-26T08:00:21.512Z,40.14
2018-07-26T08:02:51.116Z,38.51
2018-07-26T08:05:20.783Z,40.15
2018-07-26T08:07:50.494Z,40.88
2018-07-26T08:10:19.972Z,41.74
2018-07-26T08:12:49.585Z,41.89
2018-07-26T08:15:19.211Z,43.54
2018-07-26T08:17:48.830Z,42.65
2018-07-26T08:20:18.465Z,41.54
2018-07-26T08:22:47.982Z,41.98
2018-07-26T08:25:17.532Z,41.93
2018-07-26T08:27:47.151Z,41.11
2018-07-26T08:30:16.736Z,41.69
2018-07-26T08:32:46.382Z,39.81
2018-07-26T08:35:16.211Z,40.01
2018-07-26T08:37:49.819Z,39.96
2018-07-26T08:40:21.972Z,40.49
2018-07-26T08:52:01.829Z,39.16
2018-07-26T08:54:32.801Z,38.37
2018-07-26T08:57:04.258Z,35.93
2018-07-26T08:59:34.260Z,35.55
2018-07-26T09:02:08.041Z,34.24
2018-07-26T10:38:57.585Z,45.25
2018-07-26T10:41:31.383Z,46.31
2018-07-26T10:44:10.868Z,47.93
2018-07-26T10:46:41.863Z,49.03
2018-07-26T10:49:16.728Z,50.63
2018-07-26T10:51:56.381Z,51.21
2018-07-26T10:54:28.525Z,52.14
2018-07-26T10:56:59.193Z,53.35
2018-07-26T10:59:29.513Z,53.89
2018-07-26T11:01:59.372Z,56.63
2018-07-26T11:04:29.055Z,57.12
2018-07-26T11:06:58.861Z,53.61
2018-07-26T11:09:28.532Z,55.19
2018-07-26T11:11:58.400Z,57.81
2018-07-26T11:14:28.174Z,57.41
2018-07-26T11:16:57.985Z,57.83
2018-07-26T11:19:27.710Z,56.79
2018-07-26T11:21:57.284Z,55.71
2018-07-26T11:24:27.154Z,56.08
2018-07-26T11:26:56.892Z,56.24
2018-07-26T11:29:26.617Z,57.76
2018-07-26T11:31:56.330Z,58.95
2018-07-26T11:34:26.060Z,61.26
2018-07-26T11:36:55.942Z,58.98
2018-07-26T11:39:25.972Z,59.49
2018-07-26T11:41:55.577Z,61.46
2018-07-26T11:44:25.365Z,60.59
2018-07-26T11:46:55.258Z,60.26
2018-07-26T11:49:24.828Z,59.40
2018-07-26T11:51:54.644Z,61.90
2018-07-26T11:54:24.437Z,60.89
2018-07-26T11:56:54.195Z,58.17
2018-07-26T11:59:27.148Z,57.95
2018-07-26T12:01:56.862Z,56.34
2018-07-26T12:04:26.522Z,56.52
2018-07-26T12:06:56.386Z,57.89
2018-07-26T12:09:27.074Z,57.57
2018-07-26T12:11:57.561Z,58.22
2018-07-26T12:14:27.384Z,57.28
2018-07-26T12:16:57.634Z,56.09
2018-07-26T12:19:28.441Z,54.72
2018-07-26T12:21:58.385Z,57.15
2018-07-26T12:24:28.156Z,54.90
2018-07-26T12:26:57.968Z,55.46
2018-07-26T12:29:28.709Z,54.75
2018-07-26T12:31:58.906Z,53.41
2018-07-26T12:34:28.990Z,56.00
2018-07-26T12:36:59.352Z,62.86
2018-07-26T12:39:30.643Z,65.27
2018-07-26T12:42:00.441Z,64.23
2018-07-26T12:44:30.701Z,66.84
2018-07-26T12:47:00.586Z,63.26
2018-07-26T12:49:31.476Z,65.60
2018-07-26T12:52:01.427Z,65.22
2018-07-26T12:54:38.050Z,65.15
2018-07-26T12:57:09.015Z,62.49
2018-07-26T12:59:42.053Z,61.57
2018-07-26T13:02:12.385Z,58.88
2018-07-26T13:04:42.269Z,57.80
2018-07-26T13:07:12.149Z,57.07
2018-07-26T13:09:42.634Z,58.44
2018-07-26T13:12:12.605Z,61.00
2018-07-26T13:14:42.578Z,60.79
2018-07-26T13:17:12.289Z,62.15
2018-07-26T13:19:43.001Z,63.22
2018-07-26T13:22:12.892Z,56.78
2018-07-26T13:24:42.701Z,56.33
2018-07-26T13:27:12.478Z,59.72
2018-07-26T13:29:43.804Z,61.33
2018-07-26T13:32:13.605Z,62.15
2018-07-26T13:34:43.390Z,61.80
2018-07-26T13:37:14.078Z,63.00
2018-07-26T13:39:45.500Z,59.30
2018-07-26T13:42:16.757Z,58.38
2018-07-26T13:44:46.518Z,61.50
2018-07-26T13:47:16.658Z,60.22
2018-07-26T13:49:48.766Z,62.78
2018-07-26T13:52:18.737Z,62.82
2018-07-26T13:54:48.573Z,65.31
2018-07-26T13:57:19.842Z,65.39
2018-07-26T13:59:49.990Z,64.59
2018-07-26T14:02:19.991Z,63.01
2018-07-26T14:04:49.869Z,64.51
2018-07-26T14:07:20.514Z,62.92
2018-07-26T14:09:51.485Z,61.35
2018-07-26T14:12:21.400Z,60.35
2018-07-26T14:14:51.197Z,59.86
2018-07-26T14:17:21.045Z,60.75
2018-07-26T14:19:54.052Z,59.81
2018-07-26T14:22:23.770Z,60.34
2018-07-26T14:24:53.769Z,59.88
2018-07-26T14:27:23.532Z,60.27
2018-07-26T14:29:56.891Z,57.70
2018-07-26T14:32:27.426Z,56.87
2018-07-26T14:34:57.241Z,57.86
2018-07-26T14:37:26.921Z,59.21
2018-07-26T14:39:57.367Z,57.91
2018-07-26T14:42:27.306Z,54.82
2018-07-26T14:44:57.083Z,54.13
2018-07-26T14:47:26.868Z,54.08
2018-07-26T14:49:56.662Z,53.64
2018-07-26T14:52:26.378Z,53.80
2018-07-26T14:54:56.188Z,54.56
2018-07-26T14:57:25.981Z,55.56
2018-07-26T14:59:55.796Z,56.04
2018-07-26T15:02:25.576Z,54.96
2018-07-26T15:04:55.412Z,53.93
2018-07-26T15:07:25.114Z,53.55
2018-07-26T15:09:54.894Z,52.67
2018-07-26T15:12:24.666Z,51.98
2018-07-26T15:14:54.449Z,53.71
2018-07-26T15:17:24.234Z,54.12
2018-07-26T15:19:53.963Z,52.93
2018-07-26T15:22:23.912Z,53.59
2018-07-26T15:24:53.631Z,53.21
2018-07-26T15:27:23.446Z,53.33
2018-07-26T15:29:53.288Z,54.43
2018-07-26T15:32:23.037Z,53.58
2018-07-26T15:34:52.867Z,53.95
2018-07-26T15:37:22.567Z,54.96
2018-07-26T15:39:52.352Z,55.10
2018-07-26T15:42:22.421Z,55.18
2018-07-26T15:44:52.298Z,56.65
2018-07-26T15:47:23.305Z,56.18
2018-07-26T15:49:54.061Z,55.38
2018-07-26T15:52:23.797Z,56.18
2018-07-26T15:54:53.433Z,56.75
2018-07-26T15:57:23.310Z,56.00
2018-07-26T15:59:52.950Z,56.24
2018-07-26T16:02:22.934Z,55.93
2018-07-26T16:04:53.070Z,55.27
2018-07-26T16:07:22.901Z,55.39
2018-07-26T16:09:52.643Z,56.55
2018-07-26T16:12:22.517Z,56.24
2018-07-26T16:14:52.221Z,55.85
2018-07-26T16:17:22.076Z,56.25
2018-07-26T16:19:51.767Z,58.85
2018-07-26T16:22:21.617Z,58.95
2018-07-26T16:24:51.481Z,60.26
2018-07-26T16:27:21.265Z,61.22
2018-07-26T16:29:51.016Z,62.18
2018-07-26T16:32:20.877Z,63.70
2018-07-26T16:34:50.654Z,63.17
2018-07-26T16:37:20.426Z,62.98
2018-07-26T16:39:50.288Z,63.82
2018-07-26T16:42:20.234Z,63.45
2018-07-26T16:44:50.489Z,63.30
2018-07-26T16:47:20.425Z,61.83
2018-07-26T16:49:50.400Z,60.99
2018-07-26T16:52:20.330Z,60.49
2018-07-26T16:54:50.785Z,61.63
2018-07-26T16:57:20.444Z,60.98
2018-07-26T16:59:50.370Z,61.88
2018-07-26T17:02:20.250Z,59.57
2018-07-26T17:04:50.241Z,60.22
2018-07-26T17:07:20.135Z,59.21
2018-07-26T17:09:49.914Z,58.35
2018-07-26T17:12:19.926Z,57.35
2018-07-26T17:14:49.850Z,58.01
2018-07-26T17:17:19.595Z,57.98
2018-07-26T17:19:49.416Z,57.20
2018-07-26T17:22:19.059Z,59.68
2018-07-26T17:24:48.991Z,58.56
2018-07-26T17:27:18.732Z,58.69
2018-07-26T17:29:48.520Z,59.80
2018-07-26T17:32:18.334Z,60.71
2018-07-26T17:34:49.125Z,60.43
2018-07-26T17:37:18.862Z,60.70
2018-07-26T17:39:48.738Z,61.15
2018-07-26T17:42:18.589Z,61.68
2018-07-26T17:44:49.028Z,61.36
2018-07-26T17:47:18.951Z,61.83
2018-07-26T17:49:48.753Z,61.70
2018-07-26T17:52:18.674Z,62.14
2018-07-26T17:54:48.473Z,61.62
2018-07-26T17:57:18.240Z,61.06
2018-07-26T17:59:47.932Z,63.51
2018-07-26T18:02:17.682Z,64.82
2018-07-26T18:04:47.635Z,65.59
2018-07-26T18:07:17.505Z,65.92
2018-07-26T18:09:47.230Z,64.91
2018-07-26T18:12:17.044Z,64.54
2018-07-26T18:14:46.803Z,64.46
2018-07-26T18:17:16.582Z,64.99
2018-07-26T18:19:46.341Z,64.93
2018-07-26T18:22:16.077Z,64.78
2018-07-26T18:24:45.902Z,64.79
2018-07-26T18:27:15.662Z,66.50
2018-07-26T18:29:45.417Z,65.44
2018-07-26T18:32:15.224Z,64.30
2018-07-26T18:34:46.315Z,65.15
2018-07-26T18:37:16.175Z,65.31
2018-07-26T18:39:46.353Z,66.62
2018-07-26T18:42:16.107Z,64.74
2018-07-26T18:44:45.839Z,65.93
2018-07-26T18:47:15.788Z,66.72
2018-07-26T18:49:45.778Z,65.57
2018-07-26T18:52:15.650Z,65.44
2018-07-26T18:54:45.425Z,65.17
2018-07-26T18:57:15.161Z,64.59
2018-07-26T18:59:44.844Z,64.23
2018-07-26T19:02:14.664Z,64.88
2018-07-26T19:04:44.590Z,66.78
2018-07-26T19:07:14.478Z,69.12
2018-07-26T19:09:44.339Z,68.41
2018-07-26T19:12:14.215Z,68.16
2018-07-26T19:14:44.030Z,67.90
2018-07-26T19:17:13.629Z,66.52
2018-07-26T19:19:43.445Z,66.09
2018-07-26T19:22:13.282Z,65.72
2018-07-26T19:24:42.972Z,67.01
2018-07-26T19:27:12.775Z,68.51
2018-07-26T19:29:42.600Z,68.93
2018-07-26T19:32:16.023Z,69.32
2018-07-26T19:34:46.523Z,71.10
2018-07-26T19:37:18.603Z,68.72
2018-07-26T19:39:48.275Z,66.96
2018-07-26T19:42:26.287Z,67.50
2018-07-26T19:45:04.286Z,68.82
2018-07-26T19:47:43.004Z,69.44
2018-07-26T19:50:35.185Z,71.35
2018-07-26T19:53:19.832Z,69.27
2018-07-26T19:55:49.787Z,67.55
2018-07-26T20:01:22.487Z,65.89
2018-07-26T20:06:28.346Z,65.34
2018-07-26T20:08:58.130Z,65.43
2018-07-26T20:11:31.012Z,64.90
2018-07-26T20:14:00.754Z,66.35
2018-07-26T20:16:32.976Z,66.06
2018-07-26T20:19:09.243Z,66.00
